Terminal Aerodrome Forecast
Issued by NWS Indianapolis, IN

Home | Current Version | Previous Version | Text Only | Print | Product List | Glossary On
Versions: 1 2 3 4 5 6 7 8 9 10 11 12 13 14 15 16 17 18 19 20 21 22 23 24 25 26 27 28 29 30
000
FTUS43 KIND 041100
TAFIND
TAF
KIND 041122Z 0412/0518 32009KT P6SM BKN020 OVC080
      TEMPO 0412/0414 SCT020 OVC080
     FM042000 33011KT P6SM BKN025 OVC050
      TEMPO 0420/0424 2SM -SN
     FM050100 35012KT P6SM SCT025 OVC080=

USA.gov is the U.S. government's official web portal to all federal, state and local government web resources and services.